createdAt,value
2018-05-11T00:00:20.129Z,14.14
2018-05-11T00:02:49.856Z,14.08
2018-05-11T00:05:20.262Z,14.05
2018-05-11T00:07:51.061Z,14.04
2018-05-11T00:10:21.152Z,14.04
2018-05-11T00:12:50.999Z,14.03
2018-05-11T00:15:21.683Z,14.09
2018-05-11T00:17:51.840Z,14.14
2018-05-11T00:20:21.528Z,14.18
2018-05-11T00:22:51.654Z,14.08
2018-05-11T00:25:21.502Z,13.96
2018-05-11T00:27:51.509Z,13.92
2018-05-11T00:30:21.918Z,13.89
2018-05-11T00:32:52.035Z,13.82
2018-05-11T00:35:21.591Z,13.77
2018-05-11T00:37:52.829Z,13.70
2018-05-11T00:40:22.749Z,13.71
2018-05-11T00:42:53.736Z,13.71
2018-05-11T00:45:23.774Z,13.73
2018-05-11T00:47:53.316Z,13.75
2018-05-11T00:50:24.863Z,13.83
2018-05-11T00:52:54.667Z,13.86
2018-05-11T00:55:42.815Z,13.81
2018-05-11T00:58:12.550Z,13.78
2018-05-11T01:00:43.143Z,13.86
2018-05-11T01:03:14.088Z,13.87
2018-05-11T01:05:43.784Z,13.82
2018-05-11T01:08:15.037Z,13.80
2018-05-11T01:10:44.716Z,13.77
2018-05-11T01:13:14.268Z,13.69
2018-05-11T01:15:43.958Z,13.64
2018-05-11T01:18:13.704Z,13.59
2018-05-11T01:20:44.038Z,13.44
2018-05-11T01:23:15.221Z,13.33
2018-05-11T01:25:44.817Z,13.39
2018-05-11T01:28:14.518Z,13.40
2018-05-11T01:30:44.898Z,13.40
2018-05-11T01:33:16.596Z,13.31
2018-05-11T01:35:47.423Z,13.28
2018-05-11T01:38:20.440Z,13.12
2018-05-11T01:40:50.709Z,13.09
2018-05-11T01:43:21.614Z,13.14
2018-05-11T01:45:52.367Z,13.14
2018-05-11T01:48:22.089Z,13.09
2018-05-11T01:50:52.288Z,13.13
2018-05-11T01:53:22.114Z,13.26
2018-05-11T01:55:52.946Z,13.29
2018-05-11T01:58:23.290Z,13.11
2018-05-11T02:00:53.284Z,13.10
2018-05-11T02:03:24.549Z,13.20
2018-05-11T02:05:54.391Z,13.13
2018-05-11T02:08:24.039Z,13.06
2018-05-11T02:10:54.350Z,13.00
2018-05-11T02:13:24.723Z,13.01
2018-05-11T02:15:56.295Z,12.97
2018-05-11T02:18:26.799Z,13.07
2018-05-11T02:20:56.378Z,13.15
2018-05-11T02:23:26.747Z,13.14
2018-05-11T02:25:56.528Z,13.08
2018-05-11T02:28:26.228Z,13.15
2018-05-11T02:30:56.570Z,13.27
2018-05-11T02:33:26.654Z,13.22
2018-05-11T02:35:56.529Z,13.11
2018-05-11T02:38:26.660Z,13.23
2018-05-11T02:40:56.213Z,13.21
2018-05-11T02:43:26.049Z,13.07
2018-05-11T02:45:57.292Z,12.96
2018-05-11T02:48:27.473Z,12.92
2018-05-11T02:50:57.295Z,12.91
2018-05-11T02:53:27.058Z,12.93
2018-05-11T02:55:56.776Z,12.77
2018-05-11T02:58:26.494Z,12.72
2018-05-11T03:00:56.405Z,12.77
2018-05-11T03:03:26.001Z,12.72
2018-05-11T03:05:57.578Z,12.78
2018-05-11T03:08:28.447Z,12.72
2018-05-11T03:10:58.412Z,12.66
2018-05-11T03:13:29.554Z,12.63
2018-05-11T03:15:59.483Z,12.56
2018-05-11T03:18:29.214Z,12.57
2018-05-11T03:20:58.874Z,12.50
2018-05-11T03:23:28.414Z,12.40
2018-05-11T03:25:57.951Z,12.29
2018-05-11T03:28:28.437Z,12.23
2018-05-11T03:30:58.139Z,12.26
2018-05-11T03:33:28.063Z,12.27
2018-05-11T03:35:58.671Z,12.28
2018-05-11T03:38:28.243Z,12.25
2018-05-11T03:40:58.049Z,12.28
2018-05-11T03:43:28.317Z,12.29
2018-05-11T03:45:58.352Z,12.28
2018-05-11T03:48:28.939Z,12.25
2018-05-11T03:50:58.512Z,12.30
2018-05-11T03:53:28.069Z,12.38
2018-05-11T03:55:57.624Z,12.36
2018-05-11T03:58:27.835Z,12.32
2018-05-11T04:00:58.598Z,12.32
2018-05-11T04:03:46.075Z,12.33
2018-05-11T04:06:33.689Z,12.33
2018-05-11T04:09:04.207Z,12.45
2018-05-11T04:11:33.847Z,12.60
2018-05-11T04:14:03.581Z,12.58
2018-05-11T04:16:33.767Z,12.61
2018-05-11T04:19:03.424Z,12.83
2018-05-11T04:21:32.937Z,12.98
2018-05-11T04:24:02.450Z,13.01
2018-05-11T04:26:31.991Z,12.84
2018-05-11T04:29:08.960Z,12.78
2018-05-11T04:31:39.429Z,12.66
2018-05-11T04:34:08.975Z,12.84
2018-05-11T04:36:39.475Z,13.11
2018-05-11T04:39:09.319Z,13.58
2018-05-11T04:41:38.810Z,13.94
2018-05-11T04:44:08.450Z,14.47
2018-05-11T04:46:38.122Z,14.77
2018-05-11T04:49:07.841Z,15.05
2018-05-11T04:51:38.997Z,15.34
2018-05-11T04:54:08.600Z,15.58
2018-05-11T04:56:38.282Z,15.92
2018-05-11T04:59:07.876Z,16.00
2018-05-11T05:01:38.288Z,16.23
2018-05-11T05:04:07.885Z,16.41
2018-05-11T05:06:37.475Z,16.58
2018-05-11T05:09:07.143Z,16.75
2018-05-11T05:11:37.061Z,16.80
2018-05-11T05:14:06.605Z,17.04
2018-05-11T05:16:37.197Z,17.23
2018-05-11T05:19:06.812Z,17.33
2018-05-11T05:21:36.303Z,17.55
2018-05-11T05:24:06.813Z,17.86
2018-05-11T05:26:36.657Z,18.13
2018-05-11T05:29:23.960Z,18.50
2018-05-11T05:31:57.783Z,18.59
2018-05-11T05:34:27.348Z,18.70
2018-05-11T05:36:58.567Z,18.90
2018-05-11T05:39:28.186Z,18.96
2018-05-11T05:42:00.385Z,19.03
2018-05-11T05:44:30.014Z,19.21
2018-05-11T05:46:59.940Z,19.58
2018-05-11T05:49:30.318Z,19.65
2018-05-11T05:52:01.958Z,19.41
2018-05-11T05:54:31.545Z,19.37
2018-05-11T05:57:02.098Z,19.69
2018-05-11T05:59:32.444Z,20.24
2018-05-11T06:02:02.786Z,20.78
2018-05-11T06:04:35.497Z,20.78
2018-05-11T06:07:05.223Z,20.76
2018-05-11T06:09:34.744Z,21.40
2018-05-11T06:12:05.180Z,22.04
2018-05-11T06:14:36.644Z,22.43
2018-05-11T06:17:06.222Z,22.81
2018-05-11T06:19:36.727Z,22.84
2018-05-11T06:22:06.589Z,23.00
2018-05-11T06:24:36.520Z,23.24
2018-05-11T06:27:06.296Z,23.14
2018-05-11T06:29:36.668Z,23.16
2018-05-11T06:32:06.518Z,23.26
2018-05-11T06:34:37.149Z,23.38
2018-05-11T06:37:06.664Z,23.56
2018-05-11T06:39:37.451Z,23.86
2018-05-11T06:42:07.086Z,23.97
2018-05-11T06:44:36.719Z,24.29
2018-05-11T06:47:06.239Z,24.41
2018-05-11T06:49:35.905Z,24.77
2018-05-11T06:52:05.503Z,25.13
2018-05-11T06:54:35.012Z,25.58
2018-05-11T06:57:04.530Z,25.60
2018-05-11T06:59:34.134Z,25.80
2018-05-11T07:02:03.863Z,26.36
2018-05-11T07:04:34.079Z,26.27
2018-05-11T07:07:03.603Z,26.06
2018-05-11T07:09:33.248Z,26.22
2018-05-11T07:12:04.552Z,26.10
2018-05-11T07:14:34.175Z,26.68
2018-05-11T07:17:04.135Z,26.21
2018-05-11T07:19:34.095Z,26.54
2018-05-11T07:22:03.773Z,26.92
2018-05-11T07:24:34.566Z,27.79
2018-05-11T07:27:04.344Z,28.20
2018-05-11T07:29:33.842Z,27.61
2018-05-11T07:32:03.404Z,28.30
2018-05-11T07:34:33.076Z,28.77
2018-05-11T07:37:02.669Z,28.79
2018-05-11T07:39:33.511Z,28.62
2018-05-11T07:42:03.499Z,28.34
2018-05-11T07:44:33.007Z,28.26
2018-05-11T07:47:02.579Z,28.77
2018-05-11T07:49:32.243Z,28.99
2018-05-11T07:52:01.854Z,29.57
2018-05-11T07:54:31.572Z,29.73
2018-05-11T07:57:01.140Z,29.82
2018-05-11T07:59:30.836Z,28.58
2018-05-11T08:02:00.466Z,28.74
2018-05-11T08:04:30.210Z,28.02
2018-05-11T08:06:59.894Z,28.88
2018-05-11T08:09:29.415Z,28.87
2018-05-11T08:11:59.138Z,29.99
2018-05-11T08:14:28.875Z,30.83
2018-05-11T08:16:58.574Z,31.44
2018-05-11T08:19:29.581Z,31.71
2018-05-11T08:22:02.847Z,31.83
2018-05-11T08:24:32.446Z,30.09
2018-05-11T08:27:02.972Z,28.15
2018-05-11T08:29:33.439Z,27.67
2018-05-11T08:32:02.969Z,27.85
2018-05-11T08:34:32.883Z,28.81
2018-05-11T08:37:03.634Z,29.47
2018-05-11T08:39:33.223Z,29.09
2018-05-11T08:42:02.965Z,29.05
2018-05-11T08:44:33.345Z,28.82
2018-05-11T08:47:14.526Z,29.16
2018-05-11T08:49:44.323Z,29.42
2018-05-11T08:52:14.076Z,29.28
2018-05-11T08:54:44.089Z,29.11
2018-05-11T08:57:14.683Z,28.93
2018-05-11T08:59:44.201Z,28.35
2018-05-11T09:02:14.556Z,27.84
2018-05-11T09:04:44.344Z,28.29
2018-05-11T09:07:15.339Z,29.13
2018-05-11T09:09:45.607Z,29.31
2018-05-11T09:12:15.985Z,30.00
2018-05-11T09:14:46.590Z,30.73
2018-05-11T09:17:16.359Z,30.90
2018-05-11T09:19:47.754Z,31.32
2018-05-11T09:22:17.248Z,30.78
2018-05-11T09:24:48.132Z,30.20
2018-05-11T09:27:18.901Z,29.97
2018-05-11T09:29:48.414Z,29.87
2018-05-11T09:32:18.536Z,30.18
2018-05-11T09:34:48.265Z,30.75
2018-05-11T09:37:18.074Z,29.59
2018-05-11T09:39:47.911Z,29.87
2018-05-11T09:42:18.408Z,29.66
2018-05-11T09:44:49.850Z,29.85
2018-05-11T09:47:20.565Z,30.66
2018-05-11T09:49:52.248Z,31.55
2018-05-11T09:52:21.975Z,31.18
2018-05-11T09:55:01.599Z,30.90
2018-05-11T09:57:31.843Z,31.43
2018-05-11T10:00:01.733Z,30.15
2018-05-11T10:02:31.283Z,30.45
2018-05-11T10:05:00.782Z,30.96
2018-05-11T10:07:30.296Z,31.03
2018-05-11T10:09:59.771Z,30.26
2018-05-11T10:12:29.505Z,30.97
2018-05-11T10:14:59.852Z,31.39
2018-05-11T10:17:29.732Z,31.29
2018-05-11T10:20:00.701Z,30.94
2018-05-11T10:22:30.488Z,29.83
2018-05-11T10:25:00.300Z,29.17
2018-05-11T10:27:30.513Z,29.32
2018-05-11T10:30:04.036Z,29.31
2018-05-11T10:32:34.355Z,30.32
2018-05-11T10:35:04.151Z,30.54
2018-05-11T10:37:33.790Z,30.20
2018-05-11T10:40:03.556Z,30.95
2018-05-11T10:42:33.286Z,32.00
2018-05-11T10:45:03.991Z,32.15
2018-05-11T10:47:33.517Z,31.46
2018-05-11T10:50:03.236Z,29.97
2018-05-11T10:52:33.707Z,29.70
2018-05-11T10:55:05.028Z,30.26
2018-05-11T10:57:35.131Z,30.13
2018-05-11T11:00:04.960Z,29.49
2018-05-11T11:02:35.274Z,30.67
2018-05-11T11:05:04.805Z,30.30
2018-05-11T11:07:34.387Z,30.39
2018-05-11T11:10:05.309Z,29.51
2018-05-11T11:12:35.197Z,29.15
2018-05-11T11:15:04.954Z,28.91
2018-05-11T11:17:34.574Z,29.00
2018-05-11T11:20:04.260Z,28.60
2018-05-11T11:22:35.175Z,28.12
2018-05-11T11:25:04.721Z,27.74
2018-05-11T11:27:34.235Z,27.61
2018-05-11T11:30:04.853Z,27.70
2018-05-11T11:32:34.379Z,28.94
2018-05-11T11:35:06.192Z,29.06
2018-05-11T11:37:36.002Z,28.52
2018-05-11T11:40:05.736Z,27.93
2018-05-11T11:42:35.435Z,26.74
2018-05-11T11:45:05.040Z,26.38
2018-05-11T11:47:34.892Z,26.41
2018-05-11T11:50:04.721Z,25.87
2018-05-11T11:52:34.500Z,25.68
2018-05-11T11:55:04.272Z,24.98
2018-05-11T11:57:34.559Z,24.27
2018-05-11T12:00:04.242Z,23.97
2018-05-11T12:02:34.092Z,23.41
2018-05-11T12:05:03.724Z,23.02
2018-05-11T12:07:33.703Z,22.33
2018-05-11T12:10:04.422Z,21.74
2018-05-11T12:12:34.953Z,21.20
2018-05-11T12:15:09.796Z,20.62
2018-05-11T12:17:44.131Z,20.54
2018-05-11T12:20:16.560Z,20.46
2018-05-11T12:22:46.146Z,19.94
2018-05-11T12:25:17.951Z,19.78
2018-05-11T12:27:50.229Z,19.87
2018-05-11T12:30:20.141Z,19.89
2018-05-11T12:32:50.713Z,19.91
2018-05-11T12:35:20.322Z,19.94
2018-05-11T12:37:51.113Z,19.98
2018-05-11T12:40:20.924Z,19.61
2018-05-11T12:42:51.142Z,19.39
2018-05-11T12:45:20.698Z,19.42
2018-05-11T12:47:50.623Z,19.69
2018-05-11T12:50:21.193Z,20.03
2018-05-11T12:52:51.224Z,20.32
2018-05-11T12:55:21.030Z,20.48
2018-05-11T12:57:52.439Z,20.37
2018-05-11T13:00:23.078Z,20.42
2018-05-11T13:02:53.649Z,20.53
2018-05-11T13:05:23.542Z,20.65
2018-05-11T13:07:54.096Z,20.75
2018-05-11T13:10:23.906Z,20.81
2018-05-11T13:12:53.443Z,21.03
2018-05-11T13:15:23.131Z,21.19
2018-05-11T13:17:54.034Z,21.38
2018-05-11T13:20:23.992Z,21.66
2018-05-11T13:22:53.737Z,22.10
2018-05-11T13:25:23.488Z,22.59
2018-05-11T13:27:53.020Z,23.07
2018-05-11T13:30:22.581Z,23.47
2018-05-11T13:32:52.585Z,23.77
2018-05-11T13:35:23.383Z,23.97
2018-05-11T13:37:53.898Z,24.15
2018-05-11T13:40:25.137Z,24.16
2018-05-11T13:42:54.909Z,24.06
2018-05-11T13:45:24.867Z,23.85
2018-05-11T13:47:54.630Z,23.66
2018-05-11T13:50:24.814Z,23.64
2018-05-11T13:52:54.352Z,23.96
2018-05-11T13:55:24.124Z,24.06
2018-05-11T13:57:54.994Z,23.85
2018-05-11T14:00:24.893Z,23.96
2018-05-11T14:02:54.695Z,23.73
2018-05-11T14:05:24.407Z,23.45
2018-05-11T14:08:06.188Z,23.35
2018-05-11T14:10:35.909Z,23.56
2018-05-11T14:13:05.777Z,23.43
2018-05-11T14:15:37.548Z,23.58
2018-05-11T14:18:07.396Z,23.80
2018-05-11T14:20:37.736Z,23.72
2018-05-11T14:23:07.283Z,23.65
2018-05-11T14:25:37.039Z,23.50
2018-05-11T14:28:06.725Z,23.27
2018-05-11T14:30:36.875Z,23.20
2018-05-11T14:33:06.542Z,23.27
2018-05-11T14:35:36.137Z,23.10
2018-05-11T14:38:05.975Z,22.97
2018-05-11T14:40:35.571Z,23.05
2018-05-11T14:43:06.845Z,23.10
2018-05-11T14:45:38.047Z,23.26
2018-05-11T14:48:08.332Z,23.42
2018-05-11T14:50:38.013Z,23.53
2018-05-11T14:53:08.161Z,23.56
2018-05-11T14:55:38.590Z,23.59
2018-05-11T14:58:08.265Z,23.58
2018-05-11T15:00:37.899Z,23.48
2018-05-11T15:03:07.465Z,23.44
2018-05-11T15:05:37.010Z,23.29
2018-05-11T15:08:06.730Z,23.20
2018-05-11T15:10:36.963Z,23.12
2018-05-11T15:13:06.628Z,23.02
2018-05-11T15:15:36.873Z,23.00
2018-05-11T15:18:08.101Z,23.01
2018-05-11T15:20:37.625Z,23.00
2018-05-11T15:23:07.355Z,23.07
2018-05-11T15:25:37.058Z,23.15
2018-05-11T15:28:06.736Z,23.04
2018-05-11T15:30:36.357Z,22.96
2018-05-11T15:33:05.970Z,22.87
2018-05-11T15:35:35.901Z,22.76
2018-05-11T15:38:05.801Z,22.58
2018-05-11T15:40:36.266Z,22.40
2018-05-11T15:43:06.087Z,22.25
2018-05-11T15:45:35.646Z,22.15
2018-05-11T15:48:12.868Z,22.09
2018-05-11T15:50:43.758Z,22.08
2018-05-11T15:53:13.357Z,22.21
2018-05-11T15:55:44.274Z,22.15
2018-05-11T15:58:13.968Z,22.15
2018-05-11T16:00:43.759Z,22.16
2018-05-11T16:03:13.468Z,22.19
2018-05-11T16:05:43.074Z,22.26
2018-05-11T16:08:12.893Z,22.38
2018-05-11T16:10:42.508Z,22.47
2018-05-11T16:13:12.025Z,22.47
2018-05-11T16:15:42.197Z,22.32
2018-05-11T16:18:12.579Z,22.20
2018-05-11T16:20:42.281Z,22.14
2018-05-11T16:23:13.826Z,22.24
2018-05-11T16:25:44.250Z,22.38
2018-05-11T16:28:13.848Z,22.48
2018-05-11T16:30:43.543Z,22.54
2018-05-11T16:33:13.433Z,22.61
2018-05-11T16:35:43.793Z,22.68
2018-05-11T16:38:13.304Z,22.67
2018-05-11T16:40:42.874Z,22.52
2018-05-11T16:43:12.509Z,22.36
2018-05-11T16:45:42.361Z,22.19
2018-05-11T16:48:11.952Z,21.93
2018-05-11T16:50:41.765Z,21.74
2018-05-11T16:53:22.506Z,21.54
2018-05-11T16:55:52.539Z,21.46
2018-05-11T16:58:22.329Z,21.44
2018-05-11T17:00:52.682Z,21.49
2018-05-11T17:03:23.038Z,21.54
2018-05-11T17:05:53.312Z,21.55
2018-05-11T17:08:23.298Z,21.50
2018-05-11T17:10:55.015Z,21.52
2018-05-11T17:13:24.591Z,21.51
2018-05-11T17:15:54.113Z,21.53
2018-05-11T17:18:23.730Z,21.60
2018-05-11T17:20:55.393Z,21.71
2018-05-11T17:23:26.621Z,21.72
2018-05-11T17:25:57.238Z,21.75
2018-05-11T17:28:26.992Z,21.73
2018-05-11T17:30:56.648Z,21.72
2018-05-11T17:33:26.196Z,21.71
2018-05-11T17:35:56.043Z,21.69
2018-05-11T17:38:27.736Z,21.66
2018-05-11T17:40:58.897Z,21.65
2018-05-11T17:43:30.809Z,21.69
2018-05-11T17:46:00.894Z,21.71
2018-05-11T17:48:30.979Z,21.77
2018-05-11T17:51:03.108Z,21.74
2018-05-11T17:53:34.004Z,21.65
2018-05-11T17:56:04.533Z,21.59
2018-05-11T17:58:36.338Z,21.51
2018-05-11T18:01:07.063Z,21.47
2018-05-11T18:03:36.709Z,21.47
2018-05-11T18:06:07.154Z,21.50
2018-05-11T18:08:36.721Z,21.52
2018-05-11T18:11:07.607Z,21.47
2018-05-11T18:13:37.710Z,21.40
2018-05-11T18:16:08.964Z,21.28
2018-05-11T18:18:39.071Z,21.32
2018-05-11T18:21:10.360Z,21.23
2018-05-11T18:23:41.704Z,20.99
2018-05-11T18:26:12.478Z,20.71
2018-05-11T18:28:43.306Z,20.53
2018-05-11T18:31:20.418Z,20.37
2018-05-11T18:33:51.480Z,20.25
2018-05-11T18:36:21.409Z,20.10
2018-05-11T18:38:51.354Z,20.03
2018-05-11T18:41:21.196Z,19.98
2018-05-11T18:43:51.460Z,20.01
2018-05-11T18:46:21.422Z,19.96
2018-05-11T18:48:51.627Z,19.89
2018-05-11T18:51:27.813Z,19.75
2018-05-11T18:54:20.728Z,19.67
2018-05-11T18:57:12.863Z,19.63
2018-05-11T19:00:06.873Z,19.56
2018-05-11T19:02:40.987Z,19.69
2018-05-11T19:05:11.800Z,19.57
2018-05-11T19:07:41.351Z,19.41
2018-05-11T19:10:11.668Z,19.36
2018-05-11T19:13:08.331Z,19.24
2018-05-11T19:15:39.853Z,18.99
2018-05-11T19:18:09.982Z,18.88
2018-05-11T19:20:39.883Z,18.78
2018-05-11T19:23:18.342Z,18.66
2018-05-11T19:25:49.910Z,18.87
2018-05-11T19:28:19.957Z,18.87
2018-05-11T19:30:49.746Z,18.94
2018-05-11T19:33:19.559Z,18.87
2018-05-11T19:35:49.653Z,18.83
2018-05-11T19:38:19.348Z,18.79
2018-05-11T19:40:50.743Z,18.71
2018-05-11T19:43:22.439Z,18.69
2018-05-11T19:45:52.438Z,18.63
2018-05-11T19:48:25.903Z,18.52
2018-05-11T19:50:55.865Z,18.45
2018-05-11T19:53:26.571Z,18.35
2018-05-11T19:55:56.412Z,18.27
2018-05-11T19:58:26.067Z,18.20
2018-05-11T20:00:55.729Z,18.13
2018-05-11T20:03:26.919Z,18.09
2018-05-11T20:05:56.501Z,18.02
2018-05-11T20:08:26.724Z,17.99
2018-05-11T20:10:57.221Z,17.99
2018-05-11T20:13:26.746Z,17.96
2018-05-11T20:15:56.421Z,17.86
2018-05-11T20:18:28.793Z,17.78
2018-05-11T20:21:04.949Z,17.67
2018-05-11T20:23:34.856Z,17.59
2018-05-11T20:26:05.067Z,17.49
2018-05-11T20:28:35.209Z,17.42
2018-05-11T20:31:08.069Z,17.43
2018-05-11T20:33:38.559Z,17.47
2018-05-11T20:36:08.699Z,17.51
2018-05-11T20:38:52.233Z,17.42
2018-05-11T20:41:22.408Z,17.32
2018-05-11T20:43:53.084Z,17.31
2018-05-11T20:46:22.845Z,17.22
2018-05-11T20:48:55.200Z,17.07
2018-05-11T20:51:25.242Z,16.95
2018-05-11T20:53:55.223Z,16.85
2018-05-11T20:56:26.366Z,16.81
2018-05-11T20:58:56.748Z,16.77
2018-05-11T21:01:27.649Z,16.72
2018-05-11T21:03:57.220Z,16.72
2018-05-11T21:06:28.386Z,16.70
2018-05-11T21:08:58.266Z,16.72
2018-05-11T21:22:14.674Z,16.30
2018-05-11T21:24:45.113Z,16.37
2018-05-11T21:27:15.955Z,16.29
2018-05-11T21:29:45.655Z,16.30
2018-05-11T21:32:16.197Z,16.19
2018-05-11T21:34:46.054Z,16.16
2018-05-11T21:37:15.826Z,16.10
2018-05-11T21:39:45.363Z,16.01
2018-05-11T21:42:17.904Z,15.92
2018-05-11T21:44:47.637Z,15.91
2018-05-11T21:47:17.516Z,15.88
2018-05-11T21:49:47.056Z,15.92
2018-05-11T21:52:18.813Z,15.87
2018-05-11T21:54:50.080Z,15.90
2018-05-11T21:57:24.480Z,15.93
2018-05-11T21:59:56.473Z,15.89
2018-05-11T22:02:26.387Z,15.84
2018-05-11T22:04:55.918Z,15.97
2018-05-11T22:07:25.750Z,15.88
2018-05-11T22:10:04.143Z,15.87
2018-05-11T22:12:34.772Z,15.96
2018-05-11T22:15:04.634Z,16.17
2018-05-11T22:17:34.734Z,16.28
2018-05-11T22:20:05.579Z,16.35
2018-05-11T22:22:36.054Z,16.44
2018-05-11T22:25:06.576Z,16.33
2018-05-11T22:27:36.166Z,16.25
2018-05-11T22:30:06.096Z,16.16
2018-05-11T22:32:35.678Z,16.02
2018-05-11T22:35:05.379Z,15.90
2018-05-11T22:37:38.068Z,15.82
2018-05-11T22:40:10.446Z,15.79
2018-05-11T22:42:41.010Z,15.75
2018-05-11T22:45:10.544Z,15.70
2018-05-11T22:47:40.119Z,15.68
2018-05-11T22:50:09.931Z,15.65
2018-05-11T22:52:40.365Z,15.67
2018-05-11T22:55:10.545Z,15.64
2018-05-11T22:57:40.186Z,15.64
2018-05-11T23:00:11.128Z,15.59
2018-05-11T23:02:41.921Z,15.55
2018-05-11T23:05:11.681Z,15.51
2018-05-11T23:07:42.572Z,15.26
2018-05-11T23:10:15.342Z,15.08
2018-05-11T23:12:46.442Z,14.97
2018-05-11T23:15:17.984Z,14.92
2018-05-11T23:17:48.277Z,14.83
2018-05-11T23:20:19.445Z,14.72
2018-05-11T23:22:50.424Z,14.74
2018-05-11T23:25:20.234Z,14.86
2018-05-11T23:27:50.120Z,14.87
2018-05-11T23:30:19.679Z,14.82
2018-05-11T23:32:50.788Z,14.85
2018-05-11T23:35:20.510Z,14.82
2018-05-11T23:37:50.964Z,14.89
2018-05-11T23:40:21.470Z,14.94
2018-05-11T23:42:51.292Z,14.92
2018-05-11T23:45:21.206Z,14.80
2018-05-11T23:47:52.540Z,14.72
2018-05-11T23:50:22.246Z,14.73
2018-05-11T23:52:53.091Z,14.77
2018-05-11T23:55:22.683Z,14.73
2018-05-11T23:57:52.890Z,14.63
